createdAt,value
2022-08-14T00:01:40.589Z,19.97
2022-08-14T00:04:45.887Z,19.94
2022-08-14T00:07:51.424Z,19.91
2022-08-14T00:11:02.669Z,19.85
2022-08-14T00:14:12.064Z,19.86
2022-08-14T00:17:22.781Z,19.80
2022-08-14T00:20:35.965Z,19.78
2022-08-14T00:23:54.042Z,19.70
2022-08-14T00:27:02.079Z,19.67
2022-08-14T00:30:10.758Z,19.70
2022-08-14T00:33:16.878Z,19.61
2022-08-14T00:36:37.319Z,19.60
2022-08-14T00:39:44.685Z,19.60
2022-08-14T00:42:56.351Z,19.71
2022-08-14T00:46:05.240Z,19.79
2022-08-14T00:49:14.628Z,19.70
2022-08-14T00:52:21.490Z,19.67
2022-08-14T00:55:30.258Z,19.61
2022-08-14T00:58:38.963Z,19.58
2022-08-14T01:01:50.645Z,19.50
2022-08-14T01:05:00.787Z,19.52
2022-08-14T01:08:06.968Z,19.48
2022-08-14T01:11:36.262Z,19.47
2022-08-14T01:14:42.995Z,19.44
2022-08-14T01:18:05.697Z,19.46
2022-08-14T01:21:12.720Z,19.52
2022-08-14T01:24:28.812Z,19.47
2022-08-14T01:27:53.951Z,19.54
2022-08-14T01:31:05.917Z,19.63
2022-08-14T01:35:19.130Z,19.58
2022-08-14T01:37:39.170Z,19.64
2022-08-14T01:40:51.919Z,19.57
2022-08-14T01:44:01.587Z,19.50
2022-08-14T01:47:21.665Z,19.41
2022-08-14T01:50:27.811Z,19.46
2022-08-14T01:53:35.916Z,19.31
2022-08-14T01:56:44.741Z,19.27
2022-08-14T01:59:50.241Z,19.21
2022-08-14T02:02:58.158Z,19.22
2022-08-14T02:06:32.336Z,19.14
2022-08-14T02:09:31.988Z,19.04
2022-08-14T02:12:38.813Z,19.07
2022-08-14T02:15:45.708Z,18.96
2022-08-14T02:18:55.587Z,18.79
2022-08-14T02:22:03.334Z,18.64
2022-08-14T02:25:09.341Z,18.53
2022-08-14T02:28:24.096Z,18.37
2022-08-14T02:31:44.102Z,18.27
2022-08-14T02:34:49.315Z,18.29
2022-08-14T02:37:54.495Z,18.26
2022-08-14T02:40:59.350Z,18.22
2022-08-14T02:44:07.526Z,18.14
2022-08-14T02:47:14.957Z,18.06
2022-08-14T02:50:27.073Z,18.04
2022-08-14T02:53:33.277Z,18.05
2022-08-14T02:57:15.890Z,17.99
2022-08-14T03:00:09.929Z,17.91
2022-08-14T03:03:16.901Z,17.86
2022-08-14T03:06:48.806Z,17.77
2022-08-14T03:10:25.565Z,17.80
2022-08-14T03:13:20.937Z,17.71
2022-08-14T03:16:36.254Z,17.62
2022-08-14T03:19:44.338Z,17.52
2022-08-14T03:22:50.845Z,17.53
2022-08-14T03:25:56.426Z,17.52
2022-08-14T03:29:02.183Z,17.50
2022-08-14T03:32:08.742Z,17.49
2022-08-14T03:35:13.982Z,17.61
2022-08-14T03:39:13.080Z,17.65
2022-08-14T03:41:45.716Z,17.57
2022-08-14T03:45:20.113Z,17.57
2022-08-14T03:48:30.520Z,17.45
2022-08-14T03:51:44.076Z,17.34
2022-08-14T03:54:52.460Z,17.26
2022-08-14T03:57:58.083Z,17.18
2022-08-14T04:01:06.635Z,17.10
2022-08-14T04:04:13.346Z,17.04
2022-08-14T04:07:18.854Z,16.98
2022-08-14T04:10:31.709Z,16.93
2022-08-14T04:13:41.074Z,16.94
2022-08-14T04:16:47.352Z,17.04
2022-08-14T04:19:54.127Z,17.05
2022-08-14T04:22:59.805Z,17.04
2022-08-14T04:26:15.056Z,17.05
2022-08-14T04:29:32.878Z,17.05
2022-08-14T04:33:00.249Z,17.02
2022-08-14T04:36:06.116Z,17.01
2022-08-14T04:39:47.032Z,16.92
2022-08-14T04:43:19.188Z,16.88
2022-08-14T04:46:55.838Z,16.88
2022-08-14T04:49:56.889Z,16.83
2022-08-14T04:53:04.556Z,16.81
2022-08-14T04:56:31.302Z,16.93
2022-08-14T04:59:37.109Z,16.97
2022-08-14T05:02:48.294Z,17.04
2022-08-14T05:05:57.119Z,17.13
2022-08-14T05:09:04.496Z,17.23
2022-08-14T05:13:11.737Z,17.27
2022-08-14T05:15:39.455Z,17.34
2022-08-14T05:19:18.524Z,17.39
2022-08-14T05:22:16.624Z,17.40
2022-08-14T05:25:24.993Z,17.47
2022-08-14T05:28:37.209Z,17.60
2022-08-14T05:31:42.324Z,17.73
2022-08-14T05:34:47.276Z,17.91
2022-08-14T05:37:52.930Z,18.17
2022-08-14T05:41:00.454Z,18.37
2022-08-14T05:44:06.424Z,18.54
2022-08-14T05:47:11.940Z,18.68
2022-08-14T05:50:19.322Z,18.84
2022-08-14T05:53:27.074Z,18.89
2022-08-14T05:56:34.029Z,19.09
2022-08-14T05:59:42.814Z,19.32
2022-08-14T06:02:48.185Z,19.60
2022-08-14T06:05:55.712Z,19.89
2022-08-14T06:09:01.583Z,20.07
2022-08-14T06:12:09.525Z,20.36
2022-08-14T06:15:14.876Z,20.51
2022-08-14T06:18:20.291Z,20.83
2022-08-14T06:21:30.289Z,20.98
2022-08-14T06:24:37.923Z,21.11
2022-08-14T06:27:51.314Z,21.30
2022-08-14T06:30:57.167Z,21.58
2022-08-14T06:35:11.406Z,21.72
2022-08-14T06:37:28.568Z,22.01
2022-08-14T06:40:35.790Z,22.17
2022-08-14T06:43:45.241Z,22.47
2022-08-14T06:46:50.931Z,22.56
2022-08-14T06:49:58.193Z,22.66
2022-08-14T06:53:03.532Z,23.12
2022-08-14T06:56:10.676Z,23.27
2022-08-14T06:59:19.894Z,23.28
2022-08-14T07:02:43.469Z,23.40
2022-08-14T07:05:55.727Z,23.51
2022-08-14T07:09:04.841Z,23.78
2022-08-14T07:12:10.202Z,23.93
2022-08-14T07:15:39.496Z,24.10
2022-08-14T07:18:45.650Z,24.11
2022-08-14T07:21:56.672Z,24.07
2022-08-14T07:25:02.271Z,24.37
2022-08-14T07:28:12.744Z,24.28
2022-08-14T07:31:19.987Z,24.47
2022-08-14T07:34:36.665Z,24.57
2022-08-14T07:37:49.097Z,24.96
2022-08-14T07:40:59.593Z,25.16
2022-08-14T07:44:29.260Z,25.51
2022-08-14T07:47:31.355Z,25.56
2022-08-14T07:50:39.341Z,25.70
2022-08-14T07:53:45.690Z,25.89
2022-08-14T07:56:56.572Z,25.93
2022-08-14T08:00:01.976Z,26.32
2022-08-14T08:03:19.465Z,26.37
2022-08-14T08:06:29.440Z,26.86
2022-08-14T08:09:37.238Z,26.70
2022-08-14T08:12:43.394Z,26.86
2022-08-14T08:15:51.179Z,27.04
2022-08-14T08:19:01.750Z,26.42
2022-08-14T08:22:10.439Z,27.05
2022-08-14T08:25:18.200Z,27.36
2022-08-14T08:28:26.538Z,27.48
2022-08-14T08:31:32.841Z,27.47
2022-08-14T08:34:46.564Z,27.61
2022-08-14T08:38:01.253Z,27.47
2022-08-14T08:41:09.614Z,27.90
2022-08-14T08:44:17.231Z,28.14
2022-08-14T08:47:40.795Z,28.52
2022-08-14T08:50:47.458Z,27.92
2022-08-14T08:53:58.528Z,27.61
2022-08-14T08:57:04.069Z,28.45
2022-08-14T09:00:24.920Z,28.50
2022-08-14T09:03:32.192Z,28.43
2022-08-14T09:07:00.015Z,28.87
2022-08-14T09:10:11.122Z,28.55
2022-08-14T09:13:25.547Z,28.74
2022-08-14T09:16:30.917Z,28.15
2022-08-14T09:19:38.215Z,28.27
2022-08-14T09:22:49.579Z,28.45
2022-08-14T09:26:01.477Z,28.86
2022-08-14T09:29:07.746Z,29.21
2022-08-14T09:32:58.909Z,29.59
2022-08-14T09:36:01.631Z,29.51
2022-08-14T09:39:23.270Z,29.26
2022-08-14T09:42:51.348Z,29.77
2022-08-14T09:46:01.055Z,29.33
2022-08-14T09:49:11.996Z,29.54
2022-08-14T09:52:34.123Z,29.95
2022-08-14T09:55:41.861Z,29.94
2022-08-14T09:58:48.496Z,30.12
2022-08-14T10:01:55.421Z,30.04
2022-08-14T10:05:03.297Z,30.65
2022-08-14T10:08:25.300Z,30.76
2022-08-14T10:11:35.945Z,30.39
2022-08-14T10:14:41.358Z,30.35
2022-08-14T10:17:48.934Z,30.22
2022-08-14T10:20:57.721Z,30.71
2022-08-14T10:24:06.799Z,30.56
2022-08-14T10:27:19.230Z,30.70
2022-08-14T10:44:39.568Z,31.13
2022-08-14T10:48:07.558Z,31.16
2022-08-14T10:51:10.483Z,31.40
2022-08-14T10:54:26.106Z,31.73
2022-08-14T10:57:50.022Z,31.75
2022-08-14T11:01:00.645Z,31.25
2022-08-14T11:04:06.801Z,31.62
2022-08-14T11:07:21.069Z,31.80
2022-08-14T11:13:38.197Z,31.33
2022-08-14T11:16:53.285Z,31.81
2022-08-14T11:20:01.460Z,31.90
2022-08-14T11:23:09.710Z,31.86
2022-08-14T11:26:08.347Z,32.16
2022-08-14T11:29:14.033Z,31.44
2022-08-14T11:32:27.373Z,32.39
2022-08-14T11:35:43.823Z,32.21
2022-08-14T11:42:55.259Z,32.77
2022-08-14T11:45:34.325Z,31.70
2022-08-14T11:49:04.126Z,31.80
2022-08-14T11:52:12.764Z,32.36
2022-08-14T11:55:25.074Z,32.06
2022-08-14T11:58:33.316Z,32.51
2022-08-14T12:01:41.208Z,32.61
2022-08-14T12:04:52.359Z,33.42
2022-08-14T12:08:01.841Z,33.04
2022-08-14T12:11:14.421Z,32.46
2022-08-14T12:14:29.974Z,33.09
2022-08-14T12:17:47.612Z,33.41
2022-08-14T12:21:00.018Z,33.00
2022-08-14T12:24:08.452Z,32.53
2022-08-14T12:27:16.931Z,32.77
2022-08-14T12:30:29.430Z,32.99
2022-08-14T12:33:47.104Z,33.09
2022-08-14T12:37:06.066Z,32.77
2022-08-14T12:40:13.814Z,33.68
2022-08-14T12:43:22.712Z,33.37
2022-08-14T12:46:30.520Z,33.64
2022-08-14T12:49:36.617Z,33.32
2022-08-14T12:53:02.291Z,33.52
2022-08-14T12:56:21.867Z,33.61
2022-08-14T12:59:42.595Z,33.37
2022-08-14T13:02:54.851Z,33.26
2022-08-14T13:06:01.573Z,33.44
2022-08-14T13:09:11.512Z,33.86
2022-08-14T13:12:31.782Z,33.58
2022-08-14T13:15:41.572Z,33.45
2022-08-14T13:18:58.436Z,33.07
2022-08-14T13:22:10.039Z,33.94
2022-08-14T13:25:28.192Z,34.01
2022-08-14T13:28:39.708Z,34.11
2022-08-14T13:32:01.033Z,33.57
2022-08-14T13:35:12.066Z,33.84
2022-08-14T13:38:22.862Z,34.02
2022-08-14T13:41:34.528Z,34.47
2022-08-14T13:44:43.382Z,34.23
2022-08-14T13:47:52.359Z,34.20
2022-08-14T13:50:59.489Z,33.78
2022-08-14T13:54:10.190Z,33.68
2022-08-14T13:57:19.671Z,33.59
2022-08-14T14:00:32.779Z,33.53
2022-08-14T14:03:46.560Z,33.65
2022-08-14T14:06:52.899Z,34.00
2022-08-14T14:10:03.045Z,34.57
2022-08-14T14:13:16.349Z,34.56
2022-08-14T14:16:30.178Z,33.90
2022-08-14T14:19:36.482Z,33.93
2022-08-14T14:23:01.594Z,33.61
2022-08-14T14:26:14.115Z,33.60
2022-08-14T14:29:25.937Z,33.70
2022-08-14T14:32:32.666Z,33.78
2022-08-14T14:35:39.797Z,33.91
2022-08-14T14:38:48.251Z,33.57
2022-08-14T14:41:59.507Z,33.44
2022-08-14T14:45:15.516Z,34.21
2022-08-14T14:48:21.673Z,34.57
2022-08-14T14:51:34.063Z,34.94
2022-08-14T14:54:40.127Z,35.44
2022-08-14T14:57:52.123Z,34.61
2022-08-14T15:01:08.488Z,34.67
2022-08-14T15:04:20.578Z,35.35
2022-08-14T15:07:26.307Z,36.02
2022-08-14T15:10:39.875Z,35.53
2022-08-14T15:13:52.985Z,35.52
2022-08-14T15:17:00.425Z,35.49
2022-08-14T15:20:09.718Z,34.39
2022-08-14T15:23:23.110Z,35.35
2022-08-14T15:26:32.063Z,35.54
2022-08-14T15:29:43.180Z,35.90
2022-08-14T15:32:50.213Z,36.11
2022-08-14T15:35:55.878Z,35.80
2022-08-14T15:39:05.757Z,35.97
2022-08-14T15:42:14.468Z,36.33
2022-08-14T15:45:22.774Z,35.10
2022-08-14T15:48:31.522Z,35.52
2022-08-14T15:51:42.417Z,35.76
2022-08-14T15:54:49.624Z,34.68
2022-08-14T15:58:02.380Z,34.01
2022-08-14T16:01:43.628Z,34.09
2022-08-14T16:04:22.655Z,33.71
2022-08-14T16:10:41.064Z,34.33
2022-08-14T16:13:49.814Z,35.40
2022-08-14T16:17:00.742Z,34.82
2022-08-14T16:20:11.902Z,33.97
2022-08-14T16:23:18.187Z,34.95
2022-08-14T16:26:29.368Z,35.31
2022-08-14T16:29:40.756Z,34.98
2022-08-14T16:32:55.957Z,35.03
2022-08-14T16:36:29.862Z,34.26
2022-08-14T16:39:32.907Z,34.23
2022-08-14T16:43:03.961Z,33.27
2022-08-14T16:46:09.555Z,33.59
2022-08-14T16:49:17.601Z,33.29
2022-08-14T16:52:43.943Z,32.68
2022-08-14T16:56:17.342Z,32.35
2022-08-14T16:59:30.292Z,32.47
2022-08-14T17:02:42.552Z,31.80
2022-08-14T17:05:47.984Z,31.84
2022-08-14T17:08:57.466Z,31.28
2022-08-14T17:12:09.306Z,31.49
2022-08-14T17:15:35.484Z,31.38
2022-08-14T17:19:00.309Z,31.09
2022-08-14T17:22:07.382Z,31.16
2022-08-14T17:28:51.417Z,30.62
2022-08-14T17:32:02.188Z,30.37
2022-08-14T17:35:10.121Z,30.21
2022-08-14T17:38:38.772Z,30.30
2022-08-14T17:41:47.721Z,30.15
2022-08-14T17:45:07.790Z,29.92
2022-08-14T17:49:10.515Z,29.90
2022-08-14T17:52:07.859Z,29.77
2022-08-14T17:56:01.252Z,29.65
2022-08-14T17:58:50.820Z,29.48
2022-08-14T18:02:00.395Z,29.46
2022-08-14T18:05:08.349Z,29.35
2022-08-14T18:08:33.301Z,29.15
2022-08-14T18:11:45.902Z,29.09
2022-08-14T18:14:54.099Z,28.89
2022-08-14T18:18:04.696Z,28.81
2022-08-14T18:21:40.516Z,28.69
2022-08-14T18:24:39.357Z,28.50
2022-08-14T18:27:48.939Z,28.41
2022-08-14T18:31:41.906Z,28.18
2022-08-14T18:34:52.922Z,28.08
2022-08-14T18:38:25.463Z,27.94
2022-08-14T18:41:36.967Z,27.83
2022-08-14T18:45:12.940Z,27.71
2022-08-14T18:48:33.470Z,27.51
2022-08-14T18:52:13.525Z,27.31
2022-08-14T18:55:52.767Z,27.19
2022-08-14T18:58:59.630Z,27.25
2022-08-14T19:02:43.320Z,27.11
2022-08-14T19:06:02.540Z,27.15
2022-08-14T19:09:50.356Z,27.17
2022-08-14T19:12:58.460Z,27.03
2022-08-14T19:16:07.900Z,26.96
2022-08-14T19:19:18.890Z,26.84
2022-08-14T19:22:33.360Z,26.85
2022-08-14T19:26:00.099Z,26.80
2022-08-14T19:29:23.978Z,26.61
2022-08-14T19:32:40.634Z,26.66
2022-08-14T19:35:49.845Z,26.50
2022-08-14T19:39:04.381Z,26.35
2022-08-14T19:42:12.874Z,26.32
2022-08-14T19:45:18.843Z,26.27
2022-08-14T19:48:24.947Z,26.17
2022-08-14T19:51:32.817Z,26.02
2022-08-14T19:54:43.621Z,25.88
2022-08-14T19:57:58.757Z,25.72
2022-08-14T20:01:08.508Z,25.76
2022-08-14T20:04:46.261Z,25.68
2022-08-14T20:08:00.503Z,25.61
2022-08-14T20:12:00.309Z,25.56
2022-08-14T20:14:53.101Z,25.50
2022-08-14T20:17:58.784Z,25.36
2022-08-14T20:21:05.025Z,25.38
2022-08-14T20:24:31.243Z,25.32
2022-08-14T20:27:40.106Z,25.24
2022-08-14T20:30:47.388Z,25.18
2022-08-14T20:34:03.620Z,25.15
2022-08-14T20:37:16.406Z,25.08
2022-08-14T20:40:28.431Z,25.01
2022-08-14T20:43:55.707Z,25.01
2022-08-14T20:47:03.711Z,24.96
2022-08-14T20:50:20.264Z,24.80
2022-08-14T20:53:33.699Z,24.74
2022-08-14T20:56:42.706Z,24.66
2022-08-14T20:59:53.430Z,24.61
2022-08-14T21:03:28.907Z,24.57
2022-08-14T21:07:23.360Z,24.54
2022-08-14T21:10:33.681Z,24.47
2022-08-14T21:14:20.564Z,24.42
2022-08-14T21:17:04.169Z,24.35
2022-08-14T21:20:26.147Z,24.25
2022-08-14T21:23:37.211Z,24.14
2022-08-14T21:27:12.115Z,24.04
2022-08-14T21:30:21.169Z,24.00
2022-08-14T21:33:44.932Z,23.99
2022-08-14T21:36:52.908Z,23.94
2022-08-14T21:40:00.309Z,23.89
2022-08-14T21:43:06.061Z,23.88
2022-08-14T21:46:23.531Z,23.87
2022-08-14T21:49:34.121Z,23.86
2022-08-14T21:52:49.890Z,23.80
2022-08-14T21:56:11.570Z,23.81
2022-08-14T21:59:22.393Z,23.76
2022-08-14T22:02:32.698Z,23.70
2022-08-14T22:05:39.028Z,23.60
2022-08-14T22:08:46.552Z,23.56
2022-08-14T22:11:58.786Z,23.52
2022-08-14T22:15:07.335Z,23.45
2022-08-14T22:18:20.398Z,23.37
2022-08-14T22:21:26.971Z,23.32
2022-08-14T22:24:37.997Z,23.23
2022-08-14T22:27:56.401Z,23.21
2022-08-14T22:31:10.137Z,23.14
2022-08-14T22:34:16.372Z,23.12
2022-08-14T22:37:25.094Z,23.08
2022-08-14T22:40:57.611Z,22.98
2022-08-14T22:44:01.872Z,22.93
2022-08-14T22:47:08.391Z,22.90
2022-08-14T22:50:30.757Z,22.85
2022-08-14T22:53:38.899Z,22.82
2022-08-14T22:56:46.424Z,22.77
2022-08-14T22:59:52.327Z,22.73
2022-08-14T23:03:01.823Z,22.70
2022-08-14T23:07:04.376Z,22.70
2022-08-14T23:09:38.602Z,22.81
2022-08-14T23:12:54.745Z,22.84
2022-08-14T23:16:01.117Z,22.89
2022-08-14T23:19:11.148Z,22.93
2022-08-14T23:22:17.756Z,22.94
2022-08-14T23:25:57.462Z,22.91
2022-08-14T23:28:58.506Z,22.88
2022-08-14T23:32:05.252Z,22.85
2022-08-14T23:35:26.986Z,22.87
2022-08-14T23:38:34.518Z,22.88
2022-08-14T23:41:52.112Z,22.90
2022-08-14T23:45:00.157Z,22.96
2022-08-14T23:48:09.927Z,23.03
2022-08-14T23:51:19.994Z,23.11
2022-08-14T23:54:48.594Z,23.19
2022-08-14T23:57:57.473Z,23.25
